YMML/MEL METAR and TAF weather

Enter ICAO airport designator
Station Type Date Time Source
YMML METAR 2020/07/05 03:00 UTC NOAA

YMML 050300Z 21012KT 9999 -SHRA FEW006 SCT010 BKN016 11/09 Q1027


Station Type Date Time Source
YMML Decoded METAR 2020/07/05 03:00 UTC NOAA

Melbourne Airport, Australia (YMML) 37-40S 144-50E 141M
Jul 04, 2020 - 11:00 PM EDT / 2020.07.05 0300 UTC
Wind: from the SSW (210 degrees) at 14 MPH (12 KT):0
Visibility: greater than 7 mile(s):0
Sky conditions: mostly cloudy
Weather: light rain showers
Temperature: 51 F (11 C)
Dew Point: 48 F (9 C)
Relative Humidity: 87%
Pressure (altimeter): 30.33 in. Hg (1027 hPa)
ob: YMML 050300Z 21012KT 9999 -SHRA FEW006 SCT010 BKN016 11/09 Q1027
cycle: 3

Station Type Date Time Source
YMML TAF 2020/07/05 02:45 UTC NOAA

TAF
AMD YMML 050235Z 0502/0606 24010KT 9999 -DZ SCT018 BKN030
FM050800 25008KT 9999 -SHRA BKN015
BECMG 0513/0515 28008KT 9999 NSW FEW015 SCT035
BECMG 0521/0523 26010KT 9999 -SHRA SCT010 BKN015
TEMPO 0502/0504 3000 DZ BKN004
TEMPO 0504/0512 5000 DZ BKN008 INTER 0521/0602 5000 SHRA BKN010

Example: see airport list